Time;durP1;ratioP1;P1;durP2;ratioP2;P2;SDS_P1;SDS_P2;PMS_P1;PMS_P2;Temp;Humidity;BMP_temperature;BMP_pressure;BME280_temperature;BME280_humidity;BME280_pressure;Samples;Min_cycle;Max_cycle;Signal;HPM_P1;HPM_P2
2023/09/17 00:00:09;;;;;;;0.00;0.00;;;21.40;99.90;;;;;;5011096;28;20026;-82
2023/09/17 00:02:36;;;;;;;0.00;0.00;;;21.40;99.90;;;;;;5010909;28;20086;-82
2023/09/17 00:05:03;;;;;;;0.30;0.30;;;21.40;99.90;;;;;;5010107;28;20565;-82
2023/09/17 00:07:29;;;;;;;0.88;0.80;;;21.50;99.90;;;;;;5011066;28;20041;-81
2023/09/17 00:09:55;;;;;;;1.08;0.20;;;21.80;99.90;;;;;;5011094;28;20033;-80
2023/09/17 00:12:21;;;;;;;34.42;2.60;;;21.70;99.90;;;;;;5009261;28;20505;-82
2023/09/17 00:14:48;;;;;;;0.55;0.55;;;21.70;99.90;;;;;;5011474;28;20112;-81
2023/09/17 00:17:14;;;;;;;0.00;0.00;;;21.50;99.90;;;;;;5010928;28;20026;-81
2023/09/17 00:19:40;;;;;;;0.15;0.15;;;21.50;99.90;;;;;;5010729;28;20034;-79
2023/09/17 00:22:11;;;;;;;0.00;0.00;;;21.70;99.90;;;;;;5010569;28;20074;-82
2023/09/17 00:24:37;;;;;;;0.00;0.00;;;21.50;99.90;;;;;;5010691;28;20057;-81
2023/09/17 00:27:03;;;;;;;0.00;0.00;;;21.80;99.90;;;;;;5010356;28;20532;-81
2023/09/17 00:29:29;;;;;;;0.10;0.10;;;21.80;99.90;;;;;;5009559;28;20026;-80
2023/09/17 00:31:55;;;;;;;0.93;0.68;;;22.00;99.90;;;;;;5010782;28;20087;-82
2023/09/17 00:34:21;;;;;;;0.00;0.00;;;21.70;99.90;;;;;;5009070;28;20030;-81
2023/09/17 00:36:48;;;;;;;0.00;0.00;;;21.90;99.90;;;;;;5010603;28;20131;-83
2023/09/17 00:39:14;;;;;;;7.85;3.60;;;21.90;99.90;;;;;;4989476;28;20080;-81
2023/09/17 00:41:40;;;;;;;0.82;0.77;;;21.40;99.90;;;;;;4999056;28;20466;-82
2023/09/17 00:44:06;;;;;;;0.00;0.00;;;21.20;99.90;;;;;;5010314;28;20478;-82
2023/09/17 00:46:32;;;;;;;0.35;0.35;;;21.30;99.90;;;;;;5009113;28;20049;-82
2023/09/17 00:49:00;;;;;;;0.00;0.00;;;21.40;99.90;;;;;;5009457;28;20022;-81
2023/09/17 00:51:26;;;;;;;6.13;4.55;;;21.30;99.90;;;;;;5010307;28;20029;-82
2023/09/17 00:53:57;;;;;;;0.10;0.10;;;21.40;99.90;;;;;;5010048;28;20021;-82
2023/09/17 00:56:25;;;;;;;1.92;1.50;;;21.40;99.90;;;;;;5010225;28;20444;-77
2023/09/17 00:58:52;;;;;;;0.22;0.22;;;21.50;99.90;;;;;;5025253;28;20033;-81
2023/09/17 01:01:20;;;;;;;0.10;0.10;;;21.20;99.90;;;;;;5010072;28;20030;-82
2023/09/17 01:03:46;;;;;;;0.00;0.00;;;21.30;99.90;;;;;;5009881;28;20493;-82
2023/09/17 01:06:13;;;;;;;0.00;0.00;;;21.20;99.90;;;;;;5010112;28;20037;-82
2023/09/17 01:08:40;;;;;;;0.00;0.00;;;21.30;99.90;;;;;;5008541;28;20026;-82
2023/09/17 01:11:09;;;;;;;0.00;0.00;;;21.30;99.90;;;;;;4989357;28;20115;-82
2023/09/17 01:13:39;;;;;;;0.85;0.85;;;21.70;99.90;;;;;;5002105;28;20106;-82
2023/09/17 01:16:05;;;;;;;0.47;0.32;;;21.60;99.90;;;;;;5009673;28;20030;-75
2023/09/17 01:18:32;;;;;;;0.30;0.30;;;21.70;99.90;;;;;;5009928;28;20397;-76
2023/09/17 01:21:29;;;;;;;0.10;0.10;;;21.50;99.90;;;;;;5009874;28;20474;-77
2023/09/17 01:24:23;;;;;;;1.30;1.20;;;21.60;99.90;;;;;;5008416;28;20124;-76
2023/09/17 01:26:59;;;;;;;0.10;0.10;;;21.40;99.90;;;;;;5009808;28;20121;-76
2023/09/17 01:29:26;;;;;;;0.10;0.10;;;21.50;99.90;;;;;;5024958;28;20123;-77
2023/09/17 01:31:55;;;;;;;1.30;1.20;;;21.70;99.90;;;;;;5009934;28;20133;-77
2023/09/17 01:34:22;;;;;;;0.10;0.10;;;21.50;99.90;;;;;;5009473;28;20018;-76
2023/09/17 01:36:49;;;;;;;0.08;0.08;;;21.60;99.90;;;;;;5006971;28;20037;-77
2023/09/17 01:39:22;;;;;;;0.50;0.50;;;21.60;99.90;;;;;;5009033;28;20035;-76
2023/09/17 01:41:49;;;;;;;0.75;0.75;;;21.40;99.90;;;;;;5005536;28;20378;-77
2023/09/17 01:44:17;;;;;;;0.57;0.57;;;21.20;99.90;;;;;;5007898;28;20042;-76
2023/09/17 01:46:44;;;;;;;0.32;0.32;;;21.20;99.90;;;;;;4995499;28;20101;-76
2023/09/17 01:49:12;;;;;;;7.43;5.93;;;21.20;99.90;;;;;;5009915;28;20101;-76
2023/09/17 01:51:43;;;;;;;0.00;0.00;;;20.90;99.90;;;;;;5009423;28;20033;-75
2023/09/17 01:54:09;;;;;;;0.00;0.00;;;21.00;99.90;;;;;;5008212;28;20038;-77
2023/09/17 01:56:37;;;;;;;1.08;0.30;;;20.80;99.90;;;;;;5008374;28;20449;-75
2023/09/17 01:59:04;;;;;;;0.90;0.52;;;21.00;99.90;;;;;;5008247;28;20037;-78
2023/09/17 02:01:30;;;;;;;0.20;0.20;;;21.20;99.90;;;;;;5013187;28;20034;-76
2023/09/17 02:03:57;;;;;;;0.40;0.40;;;21.10;99.90;;;;;;5011666;28;20042;-76
2023/09/17 02:06:24;;;;;;;0.00;0.00;;;21.40;99.90;;;;;;4995057;28;20028;-76
2023/09/17 02:08:50;;;;;;;0.00;0.00;;;21.50;99.90;;;;;;4995651;28;20035;-76
2023/09/17 02:11:16;;;;;;;0.25;0.25;;;21.60;99.90;;;;;;5011404;28;20120;-76
2023/09/17 02:13:41;;;;;;;0.28;0.28;;;21.40;99.90;;;;;;5012472;28;20028;-78
2023/09/17 02:16:07;;;;;;;0.80;0.80;;;21.50;99.90;;;;;;5012761;28;20595;-76
2023/09/17 02:18:33;;;;;;;0.20;0.20;;;21.60;99.90;;;;;;5011499;28;20037;-76
2023/09/17 02:20:59;;;;;;;0.15;0.15;;;21.70;99.90;;;;;;5012181;28;20022;-77
2023/09/17 02:23:25;;;;;;;0.03;0.03;;;21.60;99.90;;;;;;5012591;28;20030;-77
2023/09/17 02:25:51;;;;;;;0.30;0.30;;;21.40;99.90;;;;;;5011201;28;20489;-82
2023/09/17 02:28:17;;;;;;;0.00;0.00;;;21.60;99.90;;;;;;5012731;28;20026;-81
2023/09/17 02:30:44;;;;;;;0.30;0.30;;;21.60;99.90;;;;;;5011117;28;20026;-82
2023/09/17 02:33:10;;;;;;;0.20;0.10;;;21.50;99.90;;;;;;5012349;28;20045;-80
2023/09/17 02:35:37;;;;;;;0.00;0.00;;;21.50;99.90;;;;;;5010666;28;20048;-82
2023/09/17 02:38:04;;;;;;;0.00;0.00;;;21.50;99.90;;;;;;4994740;28;20038;-82
2023/09/17 02:40:30;;;;;;;0.20;0.20;;;21.20;99.90;;;;;;5027453;28;20022;-81
2023/09/17 02:42:55;;;;;;;0.00;0.00;;;21.50;99.90;;;;;;5012302;28;20503;-81
2023/09/17 02:45:22;;;;;;;0.50;0.50;;;21.50;99.90;;;;;;5011121;28;20394;-81
2023/09/17 02:47:48;;;;;;;0.00;0.00;;;21.30;99.90;;;;;;5012129;28;20026;-83
2023/09/17 02:50:14;;;;;;;5.55;1.85;;;21.30;99.90;;;;;;5012073;28;20088;-83
2023/09/17 02:52:40;;;;;;;0.40;0.20;;;21.30;99.90;;;;;;5027216;28;20029;-82
2023/09/17 02:55:08;;;;;;;0.00;0.00;;;21.00;99.90;;;;;;5012064;28;20047;-83
2023/09/17 02:57:34;;;;;;;0.88;0.63;;;21.20;99.90;;;;;;5011956;28;20049;-79
2023/09/17 02:59:59;;;;;;;0.38;0.38;;;20.80;99.90;;;;;;5011042;28;20038;-82
2023/09/17 03:02:25;;;;;;;1.95;1.35;;;20.70;99.90;;;;;;5010455;28;20034;-80
2023/09/17 03:04:52;;;;;;;0.10;0.10;;;20.60;99.90;;;;;;5010409;28;20022;-81
2023/09/17 03:07:19;;;;;;;1.17;1.17;;;20.70;99.90;;;;;;5010382;28;20116;-82
2023/09/17 03:09:45;;;;;;;0.45;0.45;;;20.80;99.90;;;;;;4994368;28;20428;-83
2023/09/17 03:12:11;;;;;;;0.00;0.00;;;20.70;99.90;;;;;;4990355;28;20041;-82
2023/09/17 03:14:38;;;;;;;0.00;0.00;;;20.60;99.90;;;;;;5005509;28;20056;-81
2023/09/17 03:17:05;;;;;;;0.00;0.00;;;20.40;99.90;;;;;;5010407;28;20018;-83
2023/09/17 03:19:32;;;;;;;2.05;1.85;;;20.40;99.90;;;;;;5010127;28;20034;-82
2023/09/17 03:21:57;;;;;;;1.15;0.98;;;20.30;99.90;;;;;;5011241;28;20018;-82
2023/09/17 03:24:23;;;;;;;6.40;2.83;;;20.40;99.90;;;;;;5010480;28;20052;-83
2023/09/17 03:26:51;;;;;;;0.00;0.00;;;20.40;99.90;;;;;;5010149;28;20075;-80
2023/09/17 03:29:17;;;;;;;0.00;0.00;;;20.70;99.90;;;;;;5010264;28;20113;-80
2023/09/17 03:31:45;;;;;;;0.20;0.20;;;21.00;99.90;;;;;;5009964;28;20065;-79
2023/09/17 03:34:12;;;;;;;0.17;0.17;;;21.30;99.90;;;;;;5009792;28;20547;-82
2023/09/17 03:36:38;;;;;;;0.55;0.17;;;20.90;99.90;;;;;;5010350;28;20470;-83
2023/09/17 03:39:08;;;;;;;0.13;0.13;;;20.70;99.90;;;;;;5009766;28;20048;-81
2023/09/17 03:41:35;;;;;;;0.10;0.10;;;20.70;99.90;;;;;;5010095;28;20053;-81
2023/09/17 03:44:01;;;;;;;1.63;1.52;;;20.80;99.90;;;;;;4993282;28;20405;-81
2023/09/17 03:46:27;;;;;;;0.00;0.00;;;20.80;99.90;;;;;;5010106;28;20018;-83
2023/09/17 03:48:53;;;;;;;0.00;0.00;;;20.70;99.90;;;;;;5009605;28;20026;-81
2023/09/17 03:51:19;;;;;;;0.00;0.00;;;20.80;99.90;;;;;;5026480;28;20112;-82
2023/09/17 03:53:46;;;;;;;0.00;0.00;;;20.70;99.90;;;;;;5009904;28;20115;-82
2023/09/17 03:56:12;;;;;;;0.00;0.00;;;20.80;99.90;;;;;;5026225;28;20054;-81
2023/09/17 03:58:38;;;;;;;0.00;0.00;;;20.50;99.90;;;;;;5009476;28;20090;-82
2023/09/17 04:01:08;;;;;;;0.00;0.00;;;20.40;99.90;;;;;;5011075;28;20491;-82
2023/09/17 04:03:36;;;;;;;0.00;0.00;;;20.40;99.90;;;;;;5009300;28;20030;-80
2023/09/17 04:06:03;;;;;;;0.00;0.00;;;20.40;99.90;;;;;;5009594;28;20022;-82
2023/09/17 04:08:29;;;;;;;0.00;0.00;;;20.50;99.90;;;;;;5009906;28;20466;-80
2023/09/17 04:10:55;;;;;;;0.00;0.00;;;20.60;99.90;;;;;;5010799;28;20018;-81
2023/09/17 04:13:21;;;;;;;0.00;0.00;;;20.60;99.90;;;;;;5010779;28;20041;-81
2023/09/17 04:15:49;;;;;;;0.08;0.08;;;20.40;99.90;;;;;;5009559;28;20018;-82
2023/09/17 04:18:14;;;;;;;0.00;0.00;;;20.70;99.90;;;;;;5010252;28;20677;-82
2023/09/17 04:20:40;;;;;;;0.00;0.00;;;20.70;99.90;;;;;;5009616;28;20020;-81
2023/09/17 04:23:06;;;;;;;0.00;0.00;;;20.80;99.90;;;;;;5009506;28;20385;-82
2023/09/17 04:25:34;;;;;;;0.32;0.32;;;20.50;99.90;;;;;;5009461;28;20024;-81
2023/09/17 04:28:01;;;;;;;0.00;0.00;;;20.40;99.90;;;;;;5010431;28;20431;-80
2023/09/17 04:30:28;;;;;;;0.00;0.00;;;20.30;99.90;;;;;;5009440;28;20030;-82
2023/09/17 04:32:54;;;;;;;0.00;0.00;;;20.40;99.90;;;;;;5009141;28;20030;-82
2023/09/17 04:35:21;;;;;;;0.00;0.00;;;20.30;99.90;;;;;;5009468;28;20026;-81
2023/09/17 04:37:49;;;;;;;0.03;0.03;;;20.40;99.90;;;;;;5010311;28;20486;-81
2023/09/17 04:40:17;;;;;;;3.30;2.67;;;20.10;99.90;;;;;;5025388;28;20022;-81
2023/09/17 04:42:44;;;;;;;4.03;0.68;;;20.00;99.90;;;;;;5010612;28;20360;-79
2023/09/17 04:45:32;;;;;;;0.03;0.03;;;20.00;99.90;;;;;;5009235;28;20026;-81
2023/09/17 04:47:58;;;;;;;0.00;0.00;;;20.20;99.90;;;;;;5008975;28;20030;-82
2023/09/17 04:50:26;;;;;;;1.27;1.17;;;20.40;99.90;;;;;;5009203;28;20489;-81
2023/09/17 04:52:52;;;;;;;0.65;0.65;;;20.10;99.90;;;;;;5008856;28;20034;-80
2023/09/17 04:55:18;;;;;;;0.50;0.43;;;19.90;99.90;;;;;;5009349;28;20018;-76
2023/09/17 04:57:44;;;;;;;0.00;0.00;;;19.80;99.90;;;;;;5025392;28;20059;-76
2023/09/17 05:00:11;;;;;;;0.93;0.75;;;20.00;99.90;;;;;;5008738;28;20021;-76
2023/09/17 05:02:41;;;;;;;0.10;0.10;;;20.10;99.90;;;;;;5008496;28;20109;-75
2023/09/17 05:05:09;;;;;;;0.10;0.10;;;20.20;99.90;;;;;;5024996;28;20056;-76
2023/09/17 05:07:41;;;;;;;0.55;0.55;;;20.30;99.90;;;;;;5008600;28;20029;-76
2023/09/17 05:10:08;;;;;;;1.02;0.98;;;20.20;99.90;;;;;;5008832;28;20040;-77
2023/09/17 05:12:35;;;;;;;0.00;0.00;;;20.00;99.90;;;;;;5009011;28;20038;-77
2023/09/17 05:15:02;;;;;;;0.00;0.00;;;20.00;99.90;;;;;;5024723;28;20381;-78
2023/09/17 05:17:28;;;;;;;0.85;0.85;;;20.00;99.90;;;;;;4992506;28;20051;-76
2023/09/17 05:19:54;;;;;;;0.25;0.25;;;19.80;99.90;;;;;;5009747;28;20030;-75
2023/09/17 05:22:20;;;;;;;1.42;1.33;;;19.90;99.90;;;;;;5010005;28;20054;-75
2023/09/17 05:24:46;;;;;;;0.10;0.10;;;20.00;99.90;;;;;;5008849;28;20040;-82
2023/09/17 05:27:12;;;;;;;0.00;0.00;;;20.10;99.90;;;;;;5008432;28;20390;-76
2023/09/17 05:29:38;;;;;;;0.00;0.00;;;19.70;99.90;;;;;;5008418;28;20038;-76
2023/09/17 05:32:04;;;;;;;0.30;0.30;;;19.90;99.90;;;;;;5008490;28;20451;-76
2023/09/17 05:34:30;;;;;;;0.10;0.10;;;19.80;99.90;;;;;;5009351;28;20040;-76
2023/09/17 05:36:56;;;;;;;0.00;0.00;;;19.80;99.90;;;;;;5028426;28;20109;-76
2023/09/17 05:39:22;;;;;;;1.17;0.65;;;19.90;99.90;;;;;;5012791;28;20443;-76
2023/09/17 05:41:48;;;;;;;0.00;0.00;;;19.80;99.90;;;;;;5012255;28;20029;-76
2023/09/17 05:44:14;;;;;;;0.73;0.73;;;19.80;99.90;;;;;;5012917;28;20045;-75
2023/09/17 05:46:40;;;;;;;0.10;0.10;;;19.70;99.90;;;;;;4995645;28;20061;-75
2023/09/17 05:49:06;;;;;;;0.00;0.00;;;20.00;99.90;;;;;;5012982;28;20411;-76
2023/09/17 05:51:32;;;;;;;0.08;0.08;;;20.10;99.90;;;;;;5011789;28;20118;-75
2023/09/17 05:53:57;;;;;;;0.05;0.05;;;20.10;99.90;;;;;;5027801;28;20033;-75
2023/09/17 05:56:24;;;;;;;0.00;0.00;;;20.10;99.90;;;;;;5048131;28;20052;-75
2023/09/17 05:58:50;;;;;;;0.10;0.10;;;20.00;99.90;;;;;;4987496;28;20041;-76
2023/09/17 06:01:16;;;;;;;0.73;0.73;;;19.90;99.90;;;;;;5016428;28;20029;-75
2023/09/17 06:03:42;;;;;;;0.10;0.10;;;20.00;99.90;;;;;;5076377;28;20019;-75
2023/09/17 06:06:08;;;;;;;0.20;0.20;;;20.10;99.90;;;;;;5057834;28;20096;-78
2023/09/17 06:08:34;;;;;;;0.32;0.32;;;20.50;99.90;;;;;;5025695;28;20045;-76
2023/09/17 06:11:01;;;;;;;0.00;0.00;;;20.10;99.90;;;;;;5023062;27;20026;-75
2023/09/17 06:13:27;;;;;;;0.00;0.00;;;19.90;99.90;;;;;;5018477;28;20034;-75
2023/09/17 06:15:53;;;;;;;0.10;0.10;;;20.00;99.90;;;;;;5065149;28;20181;-76
2023/09/17 06:18:19;;;;;;;0.30;0.30;;;20.00;99.90;;;;;;5033222;28;20118;-75
2023/09/17 06:20:46;;;;;;;1.83;0.63;;;20.00;99.90;;;;;;5021016;28;20087;-77
2023/09/17 06:23:12;;;;;;;3.50;1.05;;;20.10;99.90;;;;;;5034079;27;20030;-75
2023/09/17 06:25:38;;;;;;;0.73;0.73;;;20.10;99.90;;;;;;5026822;28;20053;-75
2023/09/17 06:28:04;;;;;;;1.38;1.10;;;20.30;99.90;;;;;;5050895;28;20087;-75
2023/09/17 06:30:30;;;;;;;1.25;1.15;;;20.20;99.90;;;;;;5034282;28;20027;-75
2023/09/17 06:32:56;;;;;;;1.55;1.17;;;19.90;99.90;;;;;;5037390;28;20037;-74
2023/09/17 06:35:22;;;;;;;0.00;0.00;;;20.10;99.90;;;;;;5026569;28;20030;-74
2023/09/17 06:37:49;;;;;;;0.00;0.00;;;20.20;99.90;;;;;;5029546;28;20032;-75
2023/09/17 06:40:15;;;;;;;1.02;0.80;;;20.20;99.90;;;;;;5041455;28;20159;-75
2023/09/17 06:42:42;;;;;;;0.00;0.00;;;20.10;99.90;;;;;;5016232;28;20038;-76
2023/09/17 06:45:09;;;;;;;0.35;0.35;;;20.30;99.90;;;;;;5035026;28;20105;-75
2023/09/17 06:47:34;;;;;;;0.00;0.00;;;20.40;99.90;;;;;;5029871;28;20087;-76
2023/09/17 06:50:00;;;;;;;0.00;0.00;;;20.30;99.90;;;;;;5070297;28;20468;-77
2023/09/17 06:52:27;;;;;;;0.38;0.38;;;20.30;99.90;;;;;;5021135;28;20432;-76
2023/09/17 06:54:53;;;;;;;0.00;0.00;;;20.10;99.90;;;;;;5013724;28;20026;-75
2023/09/17 06:57:18;;;;;;;0.40;0.40;;;20.10;99.90;;;;;;5009172;28;20025;-76
2023/09/17 06:59:46;;;;;;;0.00;0.00;;;20.30;99.90;;;;;;5034052;28;20031;-75
2023/09/17 07:02:12;;;;;;;0.00;0.00;;;20.20;99.90;;;;;;5054675;28;20035;-80
2023/09/17 07:04:38;;;;;;;0.00;0.00;;;20.40;99.90;;;;;;5020995;28;20034;-74
2023/09/17 07:07:04;;;;;;;0.00;0.00;;;20.20;99.90;;;;;;5024278;28;20034;-76
2023/09/17 07:09:32;;;;;;;0.22;0.22;;;20.10;99.90;;;;;;5036030;28;20034;-76
2023/09/17 07:11:58;;;;;;;1.33;1.23;;;20.00;99.90;;;;;;5041336;28;20022;-75
2023/09/17 07:14:23;;;;;;;0.52;0.52;;;20.10;99.90;;;;;;5025206;28;20065;-75
2023/09/17 07:16:49;;;;;;;0.20;0.20;;;19.80;99.90;;;;;;5018625;28;20061;-75
2023/09/17 07:19:15;;;;;;;0.10;0.10;;;19.60;99.90;;;;;;5025557;28;20033;-75
2023/09/17 07:21:42;;;;;;;0.00;0.00;;;19.60;99.90;;;;;;5028310;28;20034;-75
2023/09/17 07:24:09;;;;;;;2.08;0.63;;;19.60;99.90;;;;;;5024065;28;20045;-76
2023/09/17 07:26:35;;;;;;;3.22;2.15;;;19.50;99.90;;;;;;5063212;28;20031;-76
2023/09/17 07:29:01;;;;;;;0.00;0.00;;;19.50;99.90;;;;;;5033004;28;20018;-75
2023/09/17 07:31:26;;;;;;;0.00;0.00;;;19.50;99.90;;;;;;5044725;28;20025;-75
2023/09/17 07:33:52;;;;;;;0.00;0.00;;;19.60;99.90;;;;;;5048039;28;20012;-75
2023/09/17 07:36:18;;;;;;;0.30;0.30;;;19.80;99.90;;;;;;5012403;28;20030;-75
2023/09/17 07:38:44;;;;;;;5.78;1.17;;;19.70;99.90;;;;;;5012843;28;20042;-75
2023/09/17 07:41:10;;;;;;;0.03;0.03;;;19.80;99.90;;;;;;5035124;28;20378;-75
2023/09/17 07:43:35;;;;;;;0.10;0.10;;;19.90;99.90;;;;;;5057166;28;20545;-76
2023/09/17 07:46:01;;;;;;;0.45;0.45;;;19.70;99.90;;;;;;5032980;28;20034;-75
2023/09/17 07:48:29;;;;;;;1.83;0.73;;;19.80;99.90;;;;;;5023126;28;20026;-75
2023/09/17 07:51:00;;;;;;;0.00;0.00;;;19.90;99.90;;;;;;5039745;28;20036;-76
2023/09/17 07:53:26;;;;;;;0.00;0.00;;;20.00;99.90;;;;;;5038754;28;21964;-76
2023/09/17 07:55:52;;;;;;;0.10;0.10;;;19.80;99.90;;;;;;5042528;28;20016;-75
2023/09/17 07:58:18;;;;;;;0.05;0.05;;;19.90;99.90;;;;;;5015295;28;20041;-75
2023/09/17 08:00:45;;;;;;;1.65;0.63;;;20.30;99.90;;;;;;5012537;28;20034;-76
2023/09/17 08:03:13;;;;;;;0.00;0.00;;;20.30;99.90;;;;;;5063373;28;20062;-76
2023/09/17 08:05:40;;;;;;;0.08;0.08;;;20.40;99.90;;;;;;5064219;28;20422;-75
2023/09/17 08:08:07;;;;;;;0.43;0.15;;;20.50;99.90;;;;;;5038628;28;20033;-76
2023/09/17 08:10:34;;;;;;;0.90;0.75;;;20.60;99.90;;;;;;5010615;28;20390;-74
2023/09/17 08:12:59;;;;;;;6.70;4.85;;;20.70;99.90;;;;;;5000719;28;20518;-76
2023/09/17 08:15:27;;;;;;;0.28;0.28;;;20.50;99.90;;;;;;5043502;28;20061;-75
2023/09/17 08:17:53;;;;;;;0.20;0.20;;;20.30;99.90;;;;;;5064339;28;20055;-76
2023/09/17 08:20:19;;;;;;;1.45;1.35;;;20.20;99.90;;;;;;5021171;28;20041;-75
2023/09/17 08:22:45;;;;;;;0.00;0.00;;;20.20;99.90;;;;;;5027294;28;20480;-76
2023/09/17 08:25:11;;;;;;;0.00;0.00;;;20.20;99.90;;;;;;5015242;28;20033;-75
2023/09/17 08:27:39;;;;;;;0.10;0.10;;;20.20;99.90;;;;;;5086032;28;20107;-75
2023/09/17 08:30:11;;;;;;;0.45;0.45;;;20.40;99.90;;;;;;5080218;28;20050;-76
2023/09/17 08:32:42;;;;;;;0.10;0.10;;;20.30;99.90;;;;;;5040796;28;20014;-75
2023/09/17 08:35:08;;;;;;;3.13;0.90;;;20.50;99.90;;;;;;5017793;28;20413;-75
2023/09/17 08:37:37;;;;;;;0.00;0.00;;;20.60;99.90;;;;;;5015502;28;20503;-77
2023/09/17 08:40:09;;;;;;;0.10;0.10;;;20.40;99.90;;;;;;5009137;28;20044;-75
2023/09/17 08:42:38;;;;;;;1.00;0.95;;;20.40;99.90;;;;;;5045586;28;20401;-75
2023/09/17 08:45:06;;;;;;;0.00;0.00;;;19.90;99.90;;;;;;5032926;28;20472;-80
2023/09/17 08:47:32;;;;;;;0.00;0.00;;;20.30;99.90;;;;;;5027274;28;20109;-75
2023/09/17 08:49:58;;;;;;;1.40;1.27;;;20.40;99.90;;;;;;5035972;28;20043;-75
2023/09/17 08:52:26;;;;;;;0.00;0.00;;;20.40;99.90;;;;;;5068922;28;20065;-77
2023/09/17 08:54:53;;;;;;;1.70;1.60;;;20.50;99.90;;;;;;5023075;28;20466;-75
2023/09/17 08:57:22;;;;;;;0.88;0.65;;;20.20;99.90;;;;;;5010484;28;20379;-75
2023/09/17 09:00:02;;;;;;;0.00;0.00;;;20.30;99.90;;;;;;5027802;28;20019;-75
2023/09/17 09:02:31;;;;;;;0.10;0.10;;;20.50;99.90;;;;;;5062517;28;20070;-77
2023/09/17 09:05:01;;;;;;;0.00;0.00;;;20.40;99.90;;;;;;5031784;28;20075;-75
2023/09/17 09:07:28;;;;;;;0.52;0.52;;;20.40;99.90;;;;;;5022815;28;20080;-76
2023/09/17 09:09:54;;;;;;;0.10;0.10;;;20.60;99.90;;;;;;5020087;28;20036;-75
2023/09/17 09:12:21;;;;;;;0.00;0.00;;;20.50;99.90;;;;;;5043207;28;20071;-75
2023/09/17 09:14:48;;;;;;;0.30;0.30;;;20.80;99.90;;;;;;5030194;28;20034;-77
2023/09/17 09:17:14;;;;;;;0.00;0.00;;;20.80;99.90;;;;;;5017818;28;20519;-74
2023/09/17 09:19:40;;;;;;;5.68;0.52;;;21.10;99.90;;;;;;5043055;28;20065;-75
2023/09/17 09:22:06;;;;;;;2.75;2.55;;;21.50;99.90;;;;;;5027497;28;20020;-75
2023/09/17 09:24:48;;;;;;;1.98;0.35;;;21.50;99.90;;;;;;5023581;28;20046;-76
2023/09/17 09:27:15;;;;;;;1.00;1.00;;;21.60;99.90;;;;;;5017301;28;20067;-74
2023/09/17 09:29:43;;;;;;;0.00;0.00;;;21.30;99.90;;;;;;5076211;28;20085;-75
2023/09/17 09:32:12;;;;;;;7.85;3.47;;;21.70;99.90;;;;;;5060151;28;20042;-75
2023/09/17 09:34:40;;;;;;;1.10;1.10;;;21.60;99.90;;;;;;5023300;28;20494;-79
2023/09/17 09:37:08;;;;;;;0.10;0.10;;;21.30;99.90;;;;;;5010486;28;20057;-74
2023/09/17 09:39:35;;;;;;;0.75;0.75;;;21.00;99.90;;;;;;5020717;28;20427;-75
2023/09/17 09:42:04;;;;;;;0.00;0.00;;;21.40;99.90;;;;;;5075587;28;20031;-74
2023/09/17 09:44:31;;;;;;;7.10;2.08;;;21.50;99.90;;;;;;5032019;28;20034;-74
2023/09/17 09:46:58;;;;;;;0.03;0.03;;;21.30;99.90;;;;;;5019462;28;20105;-76
2023/09/17 09:49:25;;;;;;;0.75;0.25;;;21.50;99.90;;;;;;5022585;28;20018;-86
2023/09/17 09:51:51;;;;;;;0.10;0.10;;;21.60;99.90;;;;;;5084013;28;20122;-75
2023/09/17 09:54:17;;;;;;;0.00;0.00;;;21.30;99.90;;;;;;5056233;28;20030;-75
2023/09/17 09:56:47;;;;;;;0.00;0.00;;;21.20;99.90;;;;;;5027851;28;20498;-75
2023/09/17 09:59:14;;;;;;;0.00;0.00;;;21.60;99.90;;;;;;5015008;28;20045;-74
2023/09/17 10:01:41;;;;;;;2.53;0.95;;;21.70;99.90;;;;;;5055284;28;20037;-74
2023/09/17 10:04:11;;;;;;;0.00;0.00;;;21.70;99.90;;;;;;5046275;28;20073;-74
2023/09/17 10:06:39;;;;;;;0.08;0.08;;;21.30;99.90;;;;;;5029369;28;20026;-75
2023/09/17 10:09:06;;;;;;;3.17;2.05;;;21.60;99.90;;;;;;5017663;28;20042;-74
2023/09/17 10:11:33;;;;;;;3.03;2.70;;;21.60;99.90;;;;;;5011099;28;20079;-75
2023/09/17 10:14:06;;;;;;;4.05;3.72;;;21.60;99.90;;;;;;5035198;28;20465;-74
2023/09/17 10:16:34;;;;;;;0.00;0.00;;;21.90;99.90;;;;;;5060354;28;20425;-76
2023/09/17 10:19:02;;;;;;;0.00;0.00;;;21.60;99.90;;;;;;5032061;28;20050;-75
2023/09/17 10:21:28;;;;;;;4.95;1.48;;;21.60;99.90;;;;;;5025640;28;20034;-74
2023/09/17 10:23:56;;;;;;;0.35;0.30;;;21.90;99.90;;;;;;5029958;28;20033;-74
2023/09/17 10:26:23;;;;;;;2.20;2.00;;;21.80;99.90;;;;;;5045342;28;20034;-75
2023/09/17 10:28:52;;;;;;;3.67;1.80;;;21.80;99.90;;;;;;5085316;28;20084;-75
2023/09/17 10:31:19;;;;;;;0.15;0.15;;;21.90;99.90;;;;;;5046200;28;20025;-75
2023/09/17 10:33:49;;;;;;;14.07;5.32;;;21.80;99.90;;;;;;5004861;28;20030;-74
2023/09/17 10:36:16;;;;;;;25.17;8.75;;;21.80;99.90;;;;;;5011604;28;20493;-77
2023/09/17 10:38:44;;;;;;;0.20;0.20;;;21.20;99.90;;;;;;5011745;28;20038;-75
2023/09/17 10:41:11;;;;;;;11.35;4.05;;;21.10;99.90;;;;;;5011905;28;20041;-80
2023/09/17 10:43:38;;;;;;;12.38;3.78;;;21.00;99.90;;;;;;5011411;28;20117;-75
2023/09/17 10:46:07;;;;;;;3.78;3.42;;;21.00;99.90;;;;;;5010015;28;20049;-75
2023/09/17 10:48:34;;;;;;;0.28;0.28;;;20.70;99.90;;;;;;5001390;28;20037;-74
2023/09/17 10:51:00;;;;;;;3.03;0.63;;;20.90;99.90;;;;;;5022905;28;20030;-76
2023/09/17 10:53:27;;;;;;;0.10;0.10;;;20.80;99.90;;;;;;5011271;28;20030;-75
2023/09/17 10:56:08;;;;;;;5.15;3.60;;;21.30;99.90;;;;;;5011279;28;20462;-75
2023/09/17 10:58:38;;;;;;;0.00;0.00;;;21.20;99.90;;;;;;5000920;28;20504;-74
2023/09/17 11:01:07;;;;;;;3.03;2.67;;;21.50;99.90;;;;;;5005624;28;20062;-76
2023/09/17 11:03:35;;;;;;;2.00;1.83;;;21.60;99.90;;;;;;5002033;28;20394;-74
2023/09/17 11:06:13;;;;;;;1.30;1.20;;;21.70;99.90;;;;;;5005454;28;20061;-74
2023/09/17 11:08:45;;;;;;;3.90;2.33;;;21.70;99.90;;;;;;4998542;28;20098;-74
2023/09/17 11:11:14;;;;;;;0.75;0.57;;;21.60;99.90;;;;;;5011628;28;20508;-74
2023/09/17 11:13:46;;;;;;;0.05;0.05;;;21.70;99.90;;;;;;5003508;28;20447;-74
2023/09/17 11:16:15;;;;;;;3.72;1.75;;;21.90;99.90;;;;;;5005656;28;20118;-74
2023/09/17 11:18:45;;;;;;;0.80;0.80;;;21.60;99.90;;;;;;5011088;28;20046;-74
2023/09/17 11:21:12;;;;;;;19.48;6.65;;;21.80;99.90;;;;;;5011723;28;20066;-75
2023/09/17 11:23:46;;;;;;;9.63;1.40;;;22.10;99.90;;;;;;5011381;28;20116;-79
2023/09/17 11:26:20;;;;;;;0.82;0.80;;;22.40;99.90;;;;;;5011615;28;20018;-77
2023/09/17 11:28:54;;;;;;;2.47;2.30;;;23.60;99.90;;;;;;5011393;28;20117;-74
2023/09/17 11:31:20;;;;;;;4.30;1.55;;;23.20;99.90;;;;;;5011623;28;20069;-74
2023/09/17 11:33:48;;;;;;;13.25;5.72;;;23.10;99.90;;;;;;5010151;28;20057;-74
2023/09/17 11:36:14;;;;;;;10.50;6.15;;;23.60;99.90;;;;;;5011335;28;20034;-75
2023/09/17 11:38:48;;;;;;;16.27;3.35;;;23.60;99.90;;;;;;5011282;28;20406;-74
2023/09/17 11:41:21;;;;;;;0.10;0.10;;;23.60;99.90;;;;;;5011065;28;20097;-76
2023/09/17 11:43:51;;;;;;;0.35;0.28;;;24.20;99.90;;;;;;5011223;28;20049;-75
2023/09/17 11:46:17;;;;;;;0.47;0.47;;;24.80;99.90;;;;;;5011505;28;20095;-74
2023/09/17 11:48:44;;;;;;;8.13;2.30;;;24.60;99.90;;;;;;5011311;28;20061;-74
2023/09/17 11:51:27;;;;;;;2.95;2.63;;;24.50;99.90;;;;;;5011225;28;20057;-78
2023/09/17 11:54:00;;;;;;;0.65;0.55;;;23.80;99.90;;;;;;5011123;28;20030;-79
2023/09/17 11:56:28;;;;;;;5.63;2.85;;;23.70;99.90;;;;;;5011794;28;20065;-79
2023/09/17 11:59:15;;;;;;;0.20;0.20;;;23.90;99.90;;;;;;5011441;28;20471;-80
2023/09/17 12:01:49;;;;;;;12.02;3.35;;;25.00;99.90;;;;;;5010832;28;20033;-80
2023/09/17 12:04:16;;;;;;;4.47;2.35;;;25.60;99.90;;;;;;5011015;28;20109;-79
2023/09/17 12:06:48;;;;;;;0.75;0.65;;;25.00;99.90;;;;;;5011036;28;20100;-81
2023/09/17 12:11:56;;;;;;;0.00;0.00;;;25.60;99.90;;;;;;4997906;28;20018;-81
2023/09/17 12:14:22;;;;;;;0.30;0.30;;;25.50;99.90;;;;;;5010914;28;20044;-81
2023/09/17 12:16:49;;;;;;;0.65;0.65;;;26.00;99.90;;;;;;5010329;28;20414;-81
2023/09/17 12:19:17;;;;;;;2.60;2.40;;;26.50;99.90;;;;;;5011006;28;20465;-80
2023/09/17 12:21:46;;;;;;;2.20;0.75;;;26.60;99.90;;;;;;5010619;28;20466;-81
2023/09/17 12:24:19;;;;;;;0.20;0.20;;;26.40;99.90;;;;;;5010757;28;20030;-81
2023/09/17 12:27:09;;;;;;;2.67;1.73;;;25.80;99.90;;;;;;5010759;28;20139;-81
2023/09/17 12:29:36;;;;;;;4.75;1.50;;;25.20;99.90;;;;;;4999029;28;20029;-81
2023/09/17 12:32:06;;;;;;;0.73;0.73;;;24.60;99.90;;;;;;5010358;28;20026;-80
2023/09/17 12:34:36;;;;;;;0.17;0.17;;;24.70;99.90;;;;;;5010501;28;20044;-80
2023/09/17 12:37:02;;;;;;;1.30;0.50;;;25.10;99.90;;;;;;5010691;28;20057;-81
2023/09/17 12:39:28;;;;;;;0.30;0.30;;;25.10;99.90;;;;;;5010297;28;20038;-80
2023/09/17 12:41:54;;;;;;;6.55;3.78;;;25.30;99.90;;;;;;5010670;28;20377;-78
2023/09/17 12:44:20;;;;;;;0.43;0.43;;;24.60;99.90;;;;;;5009035;28;20038;-79
2023/09/17 12:46:47;;;;;;;0.73;0.28;;;25.00;99.90;;;;;;5009218;28;20030;-78
2023/09/17 12:49:13;;;;;;;1.75;1.05;;;25.10;99.90;;;;;;5010346;28;20034;-80